Time,TemperatureF,DewpointF,PressureIn,WindDirection,WindDirectionDegrees,WindSpeedMPH,WindSpeedGustMPH,Humidity,HourlyPrecipIn,Conditions,Clouds,dailyrainin,SolarRadiationWatts/m^2,SoftwareType,DateUTC
2013-03-07 00:12:00,71.0,59.0,30.11,NE,50,15.0,23.0,67,0.00,,,0.00,0.000000,,2013-03-07 10:12:00,
2013-03-07 00:22:00,71.0,59.0,30.11,NE,50,15.0,23.0,67,0.00,,,0.00,0.000000,,2013-03-07 10:22:00,
2013-03-07 00:32:00,71.0,59.0,30.11,NE,50,15.0,23.0,67,0.00,,,0.00,0.000000,,2013-03-07 10:32:00,
2013-03-07 00:42:00,71.0,59.0,30.11,NE,50,15.0,23.0,67,0.00,,,0.00,0.000000,,2013-03-07 10:42:00,
2013-03-07 00:51:00,71.0,59.0,30.11,NE,50,15.0,23.0,67,0.00,,,0.00,0.000000,,2013-03-07 10:51:00,
2013-03-07 01:11:00,70.0,58.0,30.11,NE,54,9.0,20.0,65,0.00,,,0.00,0.000000,,2013-03-07 11:11:00,
2013-03-07 01:22:00,70.0,58.0,30.11,NE,54,9.0,20.0,65,0.00,,,0.00,0.000000,,2013-03-07 11:22:00,
2013-03-07 01:32:00,70.0,58.0,30.11,NE,54,9.0,20.0,65,0.00,,,0.00,0.000000,,2013-03-07 11:32:00,
2013-03-07 01:42:00,70.0,58.0,30.11,NE,54,9.0,20.0,65,0.00,,,0.00,0.000000,,2013-03-07 11:42:00,
2013-03-07 01:52:00,70.0,58.0,30.11,NE,54,9.0,20.0,65,0.00,,,0.00,0.000000,,2013-03-07 11:52:00,
2013-03-07 02:22:00,72.0,60.0,30.09,NE,52,8.0,15.0,67,0.00,,,0.00,0.000000,,2013-03-07 12:22:00,
2013-03-07 02:33:00,72.0,60.0,30.09,NE,52,8.0,15.0,67,0.00,,,0.00,0.000000,,2013-03-07 12:33:00,
2013-03-07 02:42:00,72.0,60.0,30.09,NE,52,8.0,15.0,67,0.00,,,0.00,0.000000,,2013-03-07 12:42:00,
2013-03-07 02:52:00,72.0,60.0,30.09,NE,52,8.0,15.0,67,0.00,,,0.00,0.000000,,2013-03-07 12:52:00,
2013-03-07 03:22:00,70.0,59.0,30.08,NE,44,7.0,13.0,67,0.00,,,0.00,0.000000,,2013-03-07 13:22:00,
2013-03-07 03:32:00,70.0,59.0,30.08,NE,44,7.0,13.0,67,0.00,,,0.00,0.000000,,2013-03-07 13:32:00,
2013-03-07 03:42:00,70.0,59.0,30.08,NE,44,7.0,13.0,67,0.00,,,0.00,0.000000,,2013-03-07 13:42:00,
2013-03-07 03:52:00,70.0,59.0,30.08,NE,44,7.0,13.0,67,0.00,,,0.00,0.000000,,2013-03-07 13:52:00,
2013-03-07 04:12:00,72.0,60.0,30.06,NE,41,5.0,15.0,67,0.00,,,0.00,0.000000,,2013-03-07 14:12:00,
2013-03-07 04:22:00,72.0,60.0,30.06,NE,41,5.0,15.0,67,0.00,,,0.00,0.000000,,2013-03-07 14:22:00,
2013-03-07 04:32:00,72.0,60.0,30.06,NE,41,5.0,15.0,67,0.00,,,0.00,0.000000,,2013-03-07 14:32:00,
2013-03-07 04:42:00,72.0,60.0,30.06,NE,41,5.0,15.0,67,0.00,,,0.00,0.000000,,2013-03-07 14:42:00,
2013-03-07 04:52:00,72.0,60.0,30.06,NE,41,5.0,15.0,67,0.00,,,0.00,0.000000,,2013-03-07 14:52:00,
2013-03-07 05:12:00,70.0,59.0,30.06,North,11,6.0,14.0,67,0.00,,,0.00,0.000000,,2013-03-07 15:12:00,
2013-03-07 05:22:00,70.0,59.0,30.06,North,11,6.0,14.0,67,0.00,,,0.00,0.000000,,2013-03-07 15:22:00,
2013-03-07 05:32:00,70.0,59.0,30.06,North,11,6.0,14.0,67,0.00,,,0.00,0.000000,,2013-03-07 15:32:00,
2013-03-07 05:42:00,70.0,59.0,30.06,North,11,6.0,14.0,67,0.00,,,0.00,0.000000,,2013-03-07 15:42:00,
2013-03-07 05:51:00,70.0,59.0,30.06,North,11,6.0,14.0,67,0.00,,,0.00,0.000000,,2013-03-07 15:51:00,
2013-03-07 06:22:00,71.0,61.0,30.07,NE,38,7.0,13.0,71,0.00,,,0.00,0.000000,,2013-03-07 16:22:00,
2013-03-07 06:32:00,71.0,61.0,30.07,NE,38,7.0,13.0,71,0.00,,,0.00,0.000000,,2013-03-07 16:32:00,
2013-03-07 06:42:00,71.0,61.0,30.07,NE,38,7.0,13.0,71,0.00,,,0.00,0.000000,,2013-03-07 16:42:00,
2013-03-07 06:52:00,71.0,61.0,30.07,NE,38,7.0,13.0,71,0.00,,,0.00,0.000000,,2013-03-07 16:52:00,
2013-03-07 07:12:00,70.0,60.0,30.08,NNE,18,7.0,15.0,71,0.00,,,0.00,1.000000,,2013-03-07 17:12:00,
2013-03-07 07:22:00,70.0,60.0,30.08,NNE,18,7.0,15.0,71,0.00,,,0.00,1.000000,,2013-03-07 17:22:00,
2013-03-07 07:32:00,70.0,60.0,30.08,NNE,18,7.0,15.0,71,0.00,,,0.00,1.000000,,2013-03-07 17:32:00,
2013-03-07 07:42:00,70.0,60.0,30.08,NNE,18,7.0,15.0,71,0.00,,,0.00,1.000000,,2013-03-07 17:42:00,
2013-03-07 07:52:00,70.0,60.0,30.08,NNE,18,7.0,15.0,71,0.00,,,0.00,1.000000,,2013-03-07 17:52:00,
2013-03-07 08:11:00,72.0,61.0,30.09,NE,44,10.0,17.0,69,0.00,,,0.00,52.000000,,2013-03-07 18:11:00,
2013-03-07 08:21:00,72.0,61.0,30.09,NE,44,10.0,17.0,69,0.00,,,0.00,52.000000,,2013-03-07 18:21:00,
2013-03-07 08:32:00,72.0,61.0,30.09,NE,44,10.0,17.0,69,0.00,,,0.00,52.000000,,2013-03-07 18:32:00,
2013-03-07 08:42:00,72.0,61.0,30.09,NE,44,10.0,17.0,69,0.00,,,0.00,52.000000,,2013-03-07 18:42:00,
2013-03-07 08:51:00,72.0,61.0,30.09,NE,44,10.0,17.0,69,0.00,,,0.00,52.000000,,2013-03-07 18:51:00,
2013-03-07 09:12:00,76.0,62.0,30.11,NE,53,9.0,18.0,61,0.00,,,0.00,376.000000,,2013-03-07 19:12:00,
2013-03-07 09:22:00,76.0,62.0,30.11,NE,53,9.0,18.0,61,0.00,,,0.00,376.000000,,2013-03-07 19:22:00,
2013-03-07 09:33:00,76.0,62.0,30.11,NE,53,9.0,18.0,61,0.00,,,0.00,376.000000,,2013-03-07 19:33:00,
2013-03-07 09:43:00,76.0,62.0,30.11,NE,53,9.0,18.0,61,0.00,,,0.00,376.000000,,2013-03-07 19:43:00,
2013-03-07 09:52:00,76.0,62.0,30.11,NE,53,9.0,18.0,61,0.00,,,0.00,376.000000,,2013-03-07 19:52:00,
2013-03-07 10:13:00,79.0,63.0,30.11,ENE,69,11.0,21.0,59,0.00,,,0.00,738.000000,,2013-03-07 20:13:00,
2013-03-07 10:22:00,79.0,63.0,30.11,ENE,69,11.0,21.0,59,0.00,,,0.00,738.000000,,2013-03-07 20:22:00,
2013-03-07 10:32:00,79.0,63.0,30.11,ENE,69,11.0,21.0,59,0.00,,,0.00,738.000000,,2013-03-07 20:32:00,
2013-03-07 10:42:00,79.0,63.0,30.11,ENE,69,11.0,21.0,59,0.00,,,0.00,738.000000,,2013-03-07 20:42:00,
2013-03-07 10:52:00,79.0,63.0,30.11,ENE,69,11.0,21.0,59,0.00,,,0.00,738.000000,,2013-03-07 20:52:00,
2013-03-07 11:12:00,80.0,59.0,30.09,ENE,78,13.0,20.0,49,0.00,,,0.00,980.000000,,2013-03-07 21:12:00,
2013-03-07 11:22:00,80.0,59.0,30.09,ENE,78,13.0,20.0,49,0.00,,,0.00,980.000000,,2013-03-07 21:22:00,
2013-03-07 11:32:00,80.0,59.0,30.09,ENE,78,13.0,20.0,49,0.00,,,0.00,980.000000,,2013-03-07 21:32:00,
2013-03-07 11:42:00,80.0,59.0,30.09,ENE,78,13.0,20.0,49,0.00,,,0.00,980.000000,,2013-03-07 21:42:00,
2013-03-07 11:52:00,80.0,59.0,30.09,ENE,78,13.0,20.0,49,0.00,,,0.00,980.000000,,2013-03-07 21:52:00,
2013-03-07 12:22:00,83.0,59.0,30.08,ENE,77,13.0,22.0,45,0.00,,,0.00,1100.000000,,2013-03-07 22:22:00,
2013-03-07 12:32:00,83.0,59.0,30.08,ENE,77,13.0,22.0,45,0.00,,,0.00,1100.000000,,2013-03-07 22:32:00,
2013-03-07 12:42:00,83.0,59.0,30.08,ENE,77,13.0,22.0,45,0.00,,,0.00,1100.000000,,2013-03-07 22:42:00,
2013-03-07 12:52:00,83.0,59.0,30.08,ENE,77,13.0,22.0,45,0.00,,,0.00,1100.000000,,2013-03-07 22:52:00,
2013-03-07 13:22:00,81.0,63.0,30.06,East,91,15.0,24.0,54,0.00,,,0.00,1205.000000,,2013-03-07 23:22:00,
2013-03-07 13:32:00,81.0,63.0,30.06,East,91,15.0,24.0,54,0.00,,,0.00,1205.000000,,2013-03-07 23:32:00,
2013-03-07 13:42:00,81.0,63.0,30.06,East,91,15.0,24.0,54,0.00,,,0.00,1205.000000,,2013-03-07 23:42:00,
2013-03-07 13:52:00,81.0,63.0,30.06,East,91,15.0,24.0,54,0.00,,,0.00,1205.000000,,2013-03-07 23:52:00,
2013-03-07 14:12:00,80.0,60.0,30.03,East,87,15.0,27.0,51,0.00,,,0.00,1137.000000,,2013-03-08 00:12:00,
2013-03-07 14:22:00,80.0,60.0,30.03,East,87,15.0,27.0,51,0.00,,,0.00,1137.000000,,2013-03-08 00:22:00,
2013-03-07 14:33:00,80.0,60.0,30.03,East,87,15.0,27.0,51,0.00,,,0.00,1137.000000,,2013-03-08 00:33:00,
2013-03-07 14:42:00,80.0,60.0,30.03,East,87,15.0,27.0,51,0.00,,,0.00,1137.000000,,2013-03-08 00:42:00,
2013-03-07 14:52:00,80.0,60.0,30.03,East,87,15.0,27.0,51,0.00,,,0.00,1137.000000,,2013-03-08 00:52:00,
2013-03-07 15:21:00,79.0,61.0,30.01,East,87,16.0,25.0,54,0.00,,,0.00,1036.000000,,2013-03-08 01:21:00,
2013-03-07 15:32:00,79.0,61.0,30.01,East,87,16.0,25.0,54,0.00,,,0.00,1036.000000,,2013-03-08 01:32:00,
2013-03-07 15:42:00,79.0,61.0,30.01,East,87,16.0,25.0,54,0.00,,,0.00,1036.000000,,2013-03-08 01:42:00,
2013-03-07 15:51:00,79.0,61.0,30.01,East,87,16.0,25.0,54,0.00,,,0.00,1036.000000,,2013-03-08 01:51:00,
2013-03-07 16:11:00,79.0,63.0,30.00,East,90,15.0,24.0,59,0.00,,,0.00,811.000000,,2013-03-08 02:11:00,
2013-03-07 16:21:00,79.0,63.0,30.00,East,90,15.0,24.0,59,0.00,,,0.00,811.000000,,2013-03-08 02:21:00,
2013-03-07 16:31:00,79.0,63.0,30.00,East,90,15.0,24.0,59,0.00,,,0.00,811.000000,,2013-03-08 02:31:00,
2013-03-07 16:41:00,79.0,63.0,30.00,East,90,15.0,24.0,59,0.00,,,0.00,811.000000,,2013-03-08 02:41:00,
2013-03-07 16:52:00,79.0,63.0,30.00,East,90,15.0,24.0,59,0.00,,,0.00,811.000000,,2013-03-08 02:52:00,
2013-03-07 17:11:00,79.0,63.0,30.01,ENE,74,12.0,22.0,58,0.00,,,-99.99,580.000000,,2013-03-08 03:11:00,
2013-03-07 17:22:00,79.0,63.0,30.01,ENE,74,12.0,22.0,58,0.00,,,-99.99,580.000000,,2013-03-08 03:22:00,
2013-03-07 17:32:00,79.0,63.0,30.01,ENE,74,12.0,22.0,58,0.00,,,-99.99,580.000000,,2013-03-08 03:32:00,
2013-03-07 17:42:00,79.0,63.0,30.01,ENE,74,12.0,22.0,58,0.00,,,-99.99,580.000000,,2013-03-08 03:42:00,
2013-03-07 17:52:00,79.0,63.0,30.01,ENE,74,12.0,22.0,58,0.00,,,-99.99,580.000000,,2013-03-08 03:52:00,
2013-03-07 18:21:00,75.0,62.0,30.02,ENE,78,11.0,20.0,64,0.00,,,0.00,237.000000,,2013-03-08 04:21:00,
2013-03-07 18:32:00,75.0,62.0,30.02,ENE,78,11.0,20.0,64,0.00,,,0.00,237.000000,,2013-03-08 04:32:00,
2013-03-07 18:42:00,75.0,62.0,30.02,ENE,78,11.0,20.0,64,0.00,,,0.00,237.000000,,2013-03-08 04:42:00,
2013-03-07 18:51:00,75.0,62.0,30.02,ENE,78,11.0,20.0,64,0.00,,,0.00,237.000000,,2013-03-08 04:51:00,
2013-03-07 19:12:00,73.0,62.0,30.05,ENE,68,9.0,19.0,68,0.00,,,0.00,30.000000,,2013-03-08 05:12:00,
2013-03-07 19:22:00,73.0,62.0,30.05,ENE,68,9.0,19.0,68,0.00,,,0.00,30.000000,,2013-03-08 05:22:00,
2013-03-07 19:32:00,73.0,62.0,30.05,ENE,68,9.0,19.0,68,0.00,,,0.00,30.000000,,2013-03-08 05:32:00,
2013-03-07 19:42:00,73.0,62.0,30.05,ENE,68,9.0,19.0,68,0.00,,,0.00,30.000000,,2013-03-08 05:42:00,
2013-03-07 19:52:00,73.0,62.0,30.05,ENE,68,9.0,19.0,68,0.00,,,0.00,30.000000,,2013-03-08 05:52:00,
2013-03-07 20:11:00,74.0,63.0,30.06,ENE,77,8.0,14.0,69,0.00,,,0.00,0.000000,,2013-03-08 06:11:00,
2013-03-07 20:21:00,74.0,63.0,30.06,ENE,77,8.0,14.0,69,0.00,,,0.00,0.000000,,2013-03-08 06:21:00,
2013-03-07 20:32:00,74.0,63.0,30.06,ENE,77,8.0,14.0,69,0.00,,,0.00,0.000000,,2013-03-08 06:32:00,
2013-03-07 20:42:00,74.0,63.0,30.06,ENE,77,8.0,14.0,69,0.00,,,0.00,0.000000,,2013-03-08 06:42:00,
2013-03-07 20:51:00,74.0,63.0,30.06,ENE,77,8.0,14.0,69,0.00,,,0.00,0.000000,,2013-03-08 06:51:00,
2013-03-07 21:11:00,73.0,62.0,30.08,ENE,70,8.0,15.0,69,0.00,,,0.00,0.000000,,2013-03-08 07:11:00,
2013-03-07 21:21:00,73.0,62.0,30.08,ENE,70,8.0,15.0,69,0.00,,,0.00,0.000000,,2013-03-08 07:21:00,
2013-03-07 21:31:00,73.0,62.0,30.08,ENE,70,8.0,15.0,69,0.00,,,0.00,0.000000,,2013-03-08 07:31:00,
2013-03-07 21:41:00,73.0,62.0,30.08,ENE,70,8.0,15.0,69,0.00,,,0.00,0.000000,,2013-03-08 07:41:00,
2013-03-07 21:51:00,73.0,62.0,30.08,ENE,70,8.0,15.0,69,0.00,,,0.00,0.000000,,2013-03-08 07:51:00,
2013-03-07 22:11:00,73.0,63.0,30.07,ENE,74,8.0,16.0,70,0.00,,,0.00,0.000000,,2013-03-08 08:11:00,
2013-03-07 22:21:00,73.0,63.0,30.07,ENE,74,8.0,16.0,70,0.00,,,0.00,0.000000,,2013-03-08 08:21:00,
2013-03-07 22:31:00,73.0,63.0,30.07,ENE,74,8.0,16.0,70,0.00,,,0.00,0.000000,,2013-03-08 08:31:00,
2013-03-07 22:41:00,73.0,63.0,30.07,ENE,74,8.0,16.0,70,0.00,,,0.00,0.000000,,2013-03-08 08:41:00,
2013-03-07 22:52:00,73.0,63.0,30.07,ENE,74,8.0,16.0,70,0.00,,,0.00,0.000000,,2013-03-08 08:52:00,
2013-03-07 23:21:00,71.0,61.0,30.07,ENE,70,6.0,14.0,71,0.00,,,0.00,0.000000,,2013-03-08 09:21:00,
2013-03-07 23:32:00,71.0,61.0,30.07,ENE,70,6.0,14.0,71,0.00,,,0.00,0.000000,,2013-03-08 09:32:00,
2013-03-07 23:42:00,71.0,61.0,30.07,ENE,70,6.0,14.0,71,0.00,,,0.00,0.000000,,2013-03-08 09:42:00,
2013-03-07 23:51:00,71.0,61.0,30.07,ENE,70,6.0,14.0,71,0.00,,,0.00,0.000000,,2013-03-08 09:51:00,